Time;durP1;ratioP1;P1;durP2;ratioP2;P2;SDS_P1;SDS_P2;PMS_P1;PMS_P2;Temp;Humidity;BMP_temperature;BMP_pressure;BME280_temperature;BME280_humidity;BME280_pressure;Samples;Min_cycle;Max_cycle;Signal;HPM_P1;HPM_P2
2022/03/28 00:02:01;;;;;;;7.25;5.18;;;6.20;89.40;;;;;;5012948;28;20014;-44
2022/03/28 00:04:26;;;;;;;8.10;5.25;;;6.20;89.50;;;;;;5013510;28;20036;-46
2022/03/28 00:06:53;;;;;;;9.18;5.85;;;6.10;89.40;;;;;;5013498;28;20083;-44
2022/03/28 00:09:20;;;;;;;10.15;5.93;;;6.10;89.50;;;;;;5012967;28;20041;-43
2022/03/28 00:11:48;;;;;;;8.60;5.53;;;6.10;89.60;;;;;;5012470;28;20030;-43
2022/03/28 00:14:15;;;;;;;7.53;5.20;;;6.10;89.60;;;;;;5012413;28;20026;-42
2022/03/28 00:16:42;;;;;;;7.28;4.80;;;6.00;89.50;;;;;;5012336;28;20064;-45
2022/03/28 00:19:11;;;;;;;7.22;4.68;;;6.00;89.60;;;;;;5012916;28;20026;-44
2022/03/28 00:21:37;;;;;;;8.07;4.90;;;6.00;89.70;;;;;;5013059;28;20030;-42
2022/03/28 00:24:03;;;;;;;6.65;4.15;;;6.00;89.70;;;;;;5012112;28;20038;-48
2022/03/28 00:26:31;;;;;;;8.32;4.35;;;6.10;89.80;;;;;;5012583;28;20048;-45
2022/03/28 00:28:59;;;;;;;7.13;3.28;;;6.10;89.90;;;;;;5011765;28;20033;-44
2022/03/28 00:31:26;;;;;;;4.40;3.03;;;6.10;90.00;;;;;;5011512;28;20040;-43
2022/03/28 00:33:52;;;;;;;5.95;2.42;;;6.10;89.90;;;;;;5012823;28;20029;-44
2022/03/28 00:36:18;;;;;;;3.38;2.05;;;6.00;90.00;;;;;;5011616;28;20032;-44
2022/03/28 00:38:45;;;;;;;3.90;1.55;;;5.90;89.90;;;;;;5011979;28;20367;-43
2022/03/28 00:41:12;;;;;;;4.60;2.33;;;5.90;89.90;;;;;;5011532;28;20121;-45
2022/03/28 00:43:59;;;;;;;5.63;3.35;;;5.90;90.00;;;;;;5011705;28;20213;-44
2022/03/28 00:46:29;;;;;;;6.28;4.35;;;5.90;90.00;;;;;;5012087;28;20427;-45
2022/03/28 00:48:57;;;;;;;5.78;3.65;;;5.90;89.90;;;;;;5012606;28;20039;-43
2022/03/28 00:51:24;;;;;;;8.32;4.65;;;5.90;89.90;;;;;;5012767;28;20080;-43
2022/03/28 00:53:52;;;;;;;7.35;5.10;;;5.90;89.90;;;;;;5012535;28;20033;-45
2022/03/28 00:56:19;;;;;;;8.93;5.63;;;5.90;89.90;;;;;;5010816;28;20050;-43
2022/03/28 00:58:47;;;;;;;8.70;5.88;;;6.00;90.00;;;;;;5012420;28;20105;-44
2022/03/28 01:01:18;;;;;;;8.63;6.18;;;5.90;89.90;;;;;;5011843;28;20376;-43
2022/03/28 01:03:45;;;;;;;9.52;5.75;;;5.90;90.10;;;;;;4994771;28;20033;-44
2022/03/28 01:06:11;;;;;;;9.60;5.85;;;5.90;90.00;;;;;;5011321;28;20033;-45
2022/03/28 01:08:37;;;;;;;9.05;5.32;;;5.90;90.00;;;;;;5011244;28;20022;-42
2022/03/28 01:11:07;;;;;;;6.93;4.80;;;5.90;90.00;;;;;;5011619;28;20560;-44
2022/03/28 01:13:36;;;;;;;6.60;4.45;;;5.80;90.00;;;;;;5011869;28;20046;-42
2022/03/28 01:16:13;;;;;;;6.13;4.45;;;5.70;89.90;;;;;;4994346;28;20430;-42
2022/03/28 01:18:48;;;;;;;6.57;4.15;;;5.80;89.80;;;;;;5011020;28;20038;-44
2022/03/28 01:21:19;;;;;;;7.15;4.82;;;5.70;89.80;;;;;;5010539;28;20100;-44
2022/03/28 01:23:46;;;;;;;7.25;4.68;;;5.70;89.90;;;;;;4995057;28;20344;-43
2022/03/28 01:26:17;;;;;;;7.20;3.88;;;5.60;89.70;;;;;;5010500;28;20026;-43
2022/03/28 01:28:53;;;;;;;4.80;2.92;;;5.60;89.80;;;;;;5011830;28;20075;-44
2022/03/28 01:31:21;;;;;;;4.22;2.90;;;5.60;89.80;;;;;;5011834;28;20038;-43
2022/03/28 01:33:48;;;;;;;4.55;2.75;;;5.50;89.70;;;;;;5011761;28;20066;-44
2022/03/28 01:36:18;;;;;;;7.68;3.47;;;5.50;89.60;;;;;;5010081;28;20034;-45
2022/03/28 01:38:44;;;;;;;4.32;2.55;;;5.50;89.70;;;;;;5010404;28;20045;-43
2022/03/28 01:41:11;;;;;;;5.43;3.40;;;5.50;89.70;;;;;;5010582;28;20336;-43
2022/03/28 01:43:41;;;;;;;5.43;3.33;;;5.60;89.70;;;;;;5011866;28;20042;-42
2022/03/28 01:46:07;;;;;;;5.47;3.28;;;5.60;89.60;;;;;;5010839;28;20044;-43
2022/03/28 01:48:35;;;;;;;4.97;2.88;;;5.70;89.50;;;;;;5011432;28;20115;-44
2022/03/28 01:51:01;;;;;;;5.55;2.90;;;5.70;89.50;;;;;;5010874;28;20044;-44
2022/03/28 01:53:28;;;;;;;8.75;3.63;;;5.70;89.40;;;;;;5011383;28;20037;-43
2022/03/28 01:55:57;;;;;;;8.10;3.72;;;5.70;89.40;;;;;;5011078;28;20085;-44
2022/03/28 01:58:25;;;;;;;6.32;4.25;;;5.70;89.40;;;;;;5008401;28;20568;-43
2022/03/28 02:00:52;;;;;;;5.85;4.05;;;5.80;89.60;;;;;;5009579;28;20455;-44
2022/03/28 02:03:17;;;;;;;7.00;3.85;;;5.80;89.50;;;;;;5010856;28;20052;-43
2022/03/28 02:05:44;;;;;;;6.00;4.05;;;5.90;89.40;;;;;;5009863;28;20034;-43
2022/03/28 02:08:11;;;;;;;8.00;4.80;;;5.80;89.30;;;;;;5010693;28;20044;-43
2022/03/28 02:10:37;;;;;;;6.60;3.90;;;5.80;89.30;;;;;;5010976;28;20057;-44
2022/03/28 02:13:06;;;;;;;7.10;4.55;;;5.80;89.40;;;;;;5009836;28;20477;-45
2022/03/28 02:15:34;;;;;;;8.23;4.53;;;5.70;89.30;;;;;;5008276;28;20034;-46
2022/03/28 02:18:03;;;;;;;7.90;4.93;;;5.70;89.50;;;;;;5009569;28;20045;-43
2022/03/28 02:20:29;;;;;;;6.30;3.35;;;5.80;89.80;;;;;;5010086;28;20048;-46
2022/03/28 02:22:57;;;;;;;8.73;4.03;;;5.70;89.80;;;;;;5009379;28;20045;-44
2022/03/28 02:25:25;;;;;;;4.47;2.95;;;5.70;89.90;;;;;;5010455;28;20188;-44
2022/03/28 02:27:53;;;;;;;5.00;2.60;;;5.70;89.90;;;;;;5009153;28;20033;-43
2022/03/28 02:30:19;;;;;;;5.05;2.83;;;5.70;90.00;;;;;;5010451;28;20435;-44
2022/03/28 02:32:46;;;;;;;3.30;2.00;;;5.70;90.00;;;;;;5010794;28;20048;-45
2022/03/28 02:35:13;;;;;;;3.72;1.88;;;5.60;90.10;;;;;;5009859;28;20085;-42
2022/03/28 02:37:40;;;;;;;3.38;1.52;;;5.70;90.00;;;;;;5009418;28;20357;-43
2022/03/28 02:40:07;;;;;;;4.45;1.98;;;5.60;89.90;;;;;;5010615;28;20034;-43
2022/03/28 02:42:37;;;;;;;3.90;2.25;;;5.60;89.80;;;;;;5010271;28;20080;-44
2022/03/28 02:45:05;;;;;;;4.15;2.10;;;5.60;89.80;;;;;;5010530;28;20201;-44
2022/03/28 02:47:32;;;;;;;4.13;2.75;;;5.60;89.80;;;;;;5010402;28;20348;-44
2022/03/28 02:49:59;;;;;;;5.05;3.53;;;5.60;89.70;;;;;;5009329;28;20036;-43
2022/03/28 02:52:27;;;;;;;7.43;3.65;;;5.60;89.70;;;;;;5008924;28;20569;-44
2022/03/28 02:54:54;;;;;;;7.07;5.25;;;5.60;89.80;;;;;;5009514;28;20056;-46
2022/03/28 02:57:21;;;;;;;5.95;4.55;;;5.50;89.80;;;;;;5009104;28;20375;-44
2022/03/28 02:59:49;;;;;;;6.35;3.72;;;5.60;90.00;;;;;;5010457;28;20033;-48
2022/03/28 03:02:15;;;;;;;5.30;4.18;;;5.50;89.80;;;;;;5008888;28;20447;-46
2022/03/28 03:04:40;;;;;;;7.43;6.28;;;5.50;89.80;;;;;;5010636;28;20025;-44
2022/03/28 03:07:07;;;;;;;7.50;6.15;;;5.60;89.70;;;;;;5009941;28;20108;-43
2022/03/28 03:09:33;;;;;;;8.95;7.68;;;5.50;89.70;;;;;;5009222;28;20084;-45
2022/03/28 03:11:59;;;;;;;9.85;7.43;;;5.60;89.80;;;;;;5008965;28;20022;-42
2022/03/28 03:14:25;;;;;;;9.63;7.80;;;5.60;89.60;;;;;;5010280;28;20091;-43
2022/03/28 03:16:52;;;;;;;10.88;7.50;;;5.70;89.70;;;;;;5009895;28;20455;-43
2022/03/28 03:19:19;;;;;;;13.27;8.27;;;5.70;89.60;;;;;;5008863;28;20033;-43
2022/03/28 03:21:48;;;;;;;13.20;8.95;;;5.70;89.70;;;;;;5009704;28;20037;-44
2022/03/28 03:24:14;;;;;;;14.13;9.80;;;5.70;89.70;;;;;;5010757;28;20475;-44
2022/03/28 03:26:41;;;;;;;11.50;8.95;;;5.70;89.80;;;;;;5009417;28;20105;-43
2022/03/28 03:29:09;;;;;;;13.25;9.48;;;5.70;89.70;;;;;;5009928;28;20034;-43
2022/03/28 03:31:36;;;;;;;9.07;6.70;;;5.70;89.80;;;;;;5013875;28;20720;-43
2022/03/28 03:34:03;;;;;;;9.32;7.22;;;5.70;89.60;;;;;;5013828;28;20096;-43
2022/03/28 03:36:30;;;;;;;11.73;8.55;;;5.80;89.50;;;;;;5013732;28;20026;-43
2022/03/28 03:38:56;;;;;;;9.40;7.10;;;5.80;89.40;;;;;;5013961;28;20025;-43
2022/03/28 03:41:23;;;;;;;8.00;6.20;;;5.80;89.50;;;;;;4996338;28;20044;-42
2022/03/28 03:43:50;;;;;;;7.88;6.63;;;5.80;89.50;;;;;;5013705;28;20029;-42
2022/03/28 03:46:18;;;;;;;9.45;7.13;;;5.80;89.60;;;;;;5013196;28;20089;-43
2022/03/28 03:48:45;;;;;;;5.75;3.03;;;5.80;89.60;;;;;;5012098;28;20371;-42
2022/03/28 03:51:13;;;;;;;4.70;2.70;;;5.70;89.60;;;;;;4996353;28;20030;-42
2022/03/28 03:53:40;;;;;;;4.43;2.00;;;5.60;89.80;;;;;;5014214;28;20037;-43
2022/03/28 03:56:07;;;;;;;3.08;1.58;;;5.50;89.70;;;;;;5013543;28;20030;-42
2022/03/28 03:58:35;;;;;;;1.15;0.70;;;5.40;89.80;;;;;;5013417;28;20029;-43
2022/03/28 04:01:01;;;;;;;1.27;0.57;;;5.30;89.70;;;;;;5012672;28;20018;-44
2022/03/28 04:03:47;;;;;;;0.95;0.77;;;5.10;89.70;;;;;;5011436;28;20034;-44
2022/03/28 04:06:14;;;;;;;1.58;0.82;;;5.10;89.70;;;;;;5013471;28;20038;-43
2022/03/28 04:08:41;;;;;;;1.30;0.60;;;5.10;90.00;;;;;;5012219;28;20049;-43
2022/03/28 04:11:10;;;;;;;1.83;1.00;;;5.10;89.90;;;;;;5012247;28;20034;-43
2022/03/28 04:13:37;;;;;;;2.90;1.60;;;5.10;90.00;;;;;;5012408;28;20112;-43
2022/03/28 04:16:05;;;;;;;2.47;1.60;;;5.10;89.90;;;;;;5013576;28;20042;-42
2022/03/28 04:18:35;;;;;;;3.30;2.30;;;5.20;90.00;;;;;;5013094;28;20092;-43
2022/03/28 04:21:05;;;;;;;4.38;3.08;;;5.30;90.20;;;;;;5011603;28;20129;-44
2022/03/28 04:23:32;;;;;;;5.03;3.28;;;5.20;90.20;;;;;;5012867;28;20120;-43
2022/03/28 04:26:00;;;;;;;5.25;2.88;;;5.30;90.20;;;;;;5012077;28;20100;-44
2022/03/28 04:28:26;;;;;;;3.65;2.45;;;5.30;90.30;;;;;;5012728;28;20036;-43
2022/03/28 04:30:54;;;;;;;5.05;2.97;;;5.40;90.30;;;;;;5013097;28;20045;-43
2022/03/28 04:33:20;;;;;;;3.30;1.77;;;5.40;90.30;;;;;;5012258;28;20036;-42
2022/03/28 04:35:47;;;;;;;2.70;1.60;;;5.40;90.00;;;;;;5012846;28;20038;-44
2022/03/28 04:38:15;;;;;;;1.33;0.70;;;5.40;90.00;;;;;;5011873;28;20041;-44
2022/03/28 04:40:41;;;;;;;1.52;0.70;;;5.30;89.70;;;;;;5012512;28;20029;-42
2022/03/28 04:43:06;;;;;;;3.25;1.20;;;5.30;89.80;;;;;;5011929;28;20065;-43
2022/03/28 04:45:35;;;;;;;2.88;1.55;;;5.30;89.70;;;;;;5012604;28;20037;-43
2022/03/28 04:48:01;;;;;;;3.42;1.70;;;5.30;90.00;;;;;;5012604;28;20046;-44
2022/03/28 04:50:32;;;;;;;2.15;1.20;;;5.30;90.00;;;;;;4994780;28;20031;-44
2022/03/28 04:52:59;;;;;;;2.55;1.30;;;5.30;90.00;;;;;;5012547;28;20038;-44
2022/03/28 04:55:26;;;;;;;5.10;2.55;;;5.30;90.00;;;;;;5011776;28;20045;-43
2022/03/28 04:57:54;;;;;;;5.35;4.25;;;5.30;90.00;;;;;;5010807;28;20533;-43
2022/03/28 05:00:19;;;;;;;9.02;6.20;;;5.30;89.90;;;;;;5010881;28;20025;-44
2022/03/28 05:02:48;;;;;;;10.02;6.95;;;5.30;89.90;;;;;;5024072;28;20344;-43
2022/03/28 05:05:17;;;;;;;9.05;7.07;;;5.40;89.90;;;;;;5004598;28;20333;-44
2022/03/28 05:07:42;;;;;;;10.65;7.43;;;5.40;89.90;;;;;;5011896;28;20022;-44
2022/03/28 05:10:10;;;;;;;13.60;10.07;;;5.40;89.90;;;;;;4994625;28;20371;-46
2022/03/28 05:12:36;;;;;;;10.70;8.15;;;5.40;90.00;;;;;;5011290;28;20037;-43
2022/03/28 05:15:05;;;;;;;9.43;7.07;;;5.50;90.00;;;;;;5011665;28;20025;-42
2022/03/28 05:17:33;;;;;;;8.02;6.43;;;5.50;89.90;;;;;;5005614;28;20087;-43
2022/03/28 05:20:00;;;;;;;8.38;6.30;;;5.50;89.90;;;;;;5011506;28;20042;-43
2022/03/28 05:22:31;;;;;;;9.85;7.63;;;5.50;89.90;;;;;;5010212;28;20371;-42
2022/03/28 05:24:58;;;;;;;12.35;8.35;;;5.60;90.00;;;;;;5011293;28;20044;-46
2022/03/28 05:27:24;;;;;;;12.15;10.02;;;5.60;90.00;;;;;;5010596;28;20037;-43
2022/03/28 05:29:55;;;;;;;13.82;9.95;;;5.70;90.00;;;;;;5003498;28;20029;-42
2022/03/28 05:32:21;;;;;;;11.52;9.73;;;5.70;89.90;;;;;;5009350;28;20831;-42
2022/03/28 05:34:49;;;;;;;8.50;5.60;;;5.70;89.80;;;;;;5008843;28;20029;-42
2022/03/28 05:37:20;;;;;;;8.30;5.47;;;5.80;89.80;;;;;;5008321;28;20033;-43
2022/03/28 05:39:48;;;;;;;7.07;5.05;;;5.80;89.90;;;;;;5006999;28;20071;-42
2022/03/28 05:42:19;;;;;;;7.20;5.32;;;5.80;89.60;;;;;;5010257;28;20560;-43
2022/03/28 05:44:46;;;;;;;5.90;4.55;;;5.80;89.50;;;;;;5010370;28;20055;-45
2022/03/28 05:47:13;;;;;;;8.00;4.78;;;5.70;89.40;;;;;;5009641;28;20105;-43
2022/03/28 05:49:49;;;;;;;6.53;5.40;;;5.80;89.30;;;;;;5010375;28;20033;-44
2022/03/28 05:52:15;;;;;;;7.10;4.75;;;5.90;89.20;;;;;;5009103;28;20033;-43
2022/03/28 05:54:42;;;;;;;8.80;5.10;;;5.90;89.00;;;;;;5010796;28;20029;-44
2022/03/28 05:57:11;;;;;;;7.18;5.97;;;5.90;88.90;;;;;;5010794;28;20021;-42
2022/03/28 05:59:38;;;;;;;7.07;5.70;;;5.90;88.90;;;;;;5004698;28;20092;-44
2022/03/28 06:02:05;;;;;;;8.55;6.47;;;6.00;88.90;;;;;;5009090;28;20336;-44
2022/03/28 06:04:34;;;;;;;8.60;6.30;;;6.00;88.80;;;;;;5009389;28;20090;-43
2022/03/28 06:07:02;;;;;;;11.32;5.80;;;6.00;88.70;;;;;;5010868;28;20101;-46
2022/03/28 06:09:28;;;;;;;7.85;5.60;;;6.10;88.60;;;;;;5010708;28;20041;-43
2022/03/28 06:11:57;;;;;;;8.77;5.75;;;6.10;88.60;;;;;;5009833;28;20029;-47
2022/03/28 06:14:26;;;;;;;9.30;6.20;;;6.20;88.60;;;;;;5008459;28;20045;-44
2022/03/28 06:16:53;;;;;;;9.45;6.13;;;6.20;88.50;;;;;;5009925;28;20034;-43
2022/03/28 06:19:23;;;;;;;8.02;4.95;;;6.30;88.60;;;;;;4996252;28;20041;-43
2022/03/28 06:21:48;;;;;;;5.82;4.70;;;6.30;88.30;;;;;;5007892;28;20041;-46
2022/03/28 06:24:14;;;;;;;6.82;3.97;;;6.30;88.10;;;;;;5010315;28;20505;-45
2022/03/28 06:26:40;;;;;;;8.70;4.35;;;6.30;87.80;;;;;;5009959;28;20105;-43
2022/03/28 06:29:10;;;;;;;8.27;4.45;;;6.30;87.60;;;;;;5004489;28;20033;-44
2022/03/28 06:31:40;;;;;;;11.73;5.30;;;6.40;87.50;;;;;;5009176;28;20096;-44
2022/03/28 06:34:10;;;;;;;9.00;4.70;;;6.40;87.40;;;;;;5007509;28;20351;-44
2022/03/28 06:36:39;;;;;;;8.27;4.68;;;6.50;87.30;;;;;;5008632;28;20042;-44
2022/03/28 06:39:17;;;;;;;10.32;4.30;;;6.50;87.20;;;;;;5008452;28;20034;-43
2022/03/28 06:41:43;;;;;;;;;;;6.60;87.30;;;;;;5009082;28;20118;-44
2022/03/28 06:44:13;;;;;;;7.20;4.50;;;6.60;87.10;;;;;;5008139;28;20362;-44
2022/03/28 06:46:44;;;;;;;6.75;4.63;;;6.70;87.10;;;;;;5009707;28;20515;-44
2022/03/28 06:49:12;;;;;;;4.75;3.78;;;6.70;87.00;;;;;;5007367;28;20048;-45
2022/03/28 06:51:40;;;;;;;8.02;3.90;;;6.70;86.90;;;;;;4992085;28;20037;-46
2022/03/28 06:54:08;;;;;;;8.32;3.53;;;6.80;86.90;;;;;;5009217;28;20088;-44
2022/03/28 06:56:52;;;;;;;5.20;2.80;;;6.70;86.90;;;;;;5005182;28;20048;-44
2022/03/28 06:59:20;;;;;;;4.82;2.22;;;6.70;87.10;;;;;;5002809;28;20455;-45
2022/03/28 07:01:47;;;;;;;12.10;2.97;;;6.70;86.40;;;;;;5002218;28;20096;-44
2022/03/28 07:04:12;;;;;;;4.40;2.72;;;6.60;86.20;;;;;;5001963;28;20022;-44
2022/03/28 07:06:38;;;;;;;6.63;3.40;;;6.70;86.20;;;;;;5005196;28;20034;-43
2022/03/28 07:09:22;;;;;;;5.78;2.97;;;6.70;86.10;;;;;;5001280;28;20123;-45
2022/03/28 07:11:51;;;;;;;5.30;3.00;;;6.70;85.80;;;;;;4981702;28;20021;-43
2022/03/28 07:14:16;;;;;;;7.35;2.30;;;6.70;85.90;;;;;;5004086;28;20062;-44
2022/03/28 07:16:43;;;;;;;5.85;2.05;;;6.80;85.70;;;;;;5006588;28;20041;-48
2022/03/28 07:19:10;;;;;;;6.65;2.65;;;6.90;85.40;;;;;;5004975;28;20376;-45
2022/03/28 07:21:37;;;;;;;5.78;2.05;;;6.80;85.00;;;;;;5005683;28;20050;-51
2022/03/28 07:24:04;;;;;;;6.28;2.05;;;6.90;84.90;;;;;;5006796;28;20120;-43
2022/03/28 07:26:32;;;;;;;6.38;2.20;;;6.90;84.70;;;;;;5006770;28;20117;-44
2022/03/28 07:29:02;;;;;;;7.50;2.40;;;6.90;84.60;;;;;;5005435;28;20048;-46
2022/03/28 07:31:29;;;;;;;5.07;2.28;;;6.90;84.50;;;;;;5005793;28;20046;-45
2022/03/28 07:34:29;;;;;;;5.18;2.00;;;7.00;84.50;;;;;;5004883;28;20109;-44
2022/03/28 07:36:43;;;;;;;6.72;1.75;;;7.20;84.70;;;;;;5005780;28;20121;-44
2022/03/28 07:39:15;;;;;;;4.05;2.13;;;7.20;84.20;;;;;;5005860;28;20066;-46
2022/03/28 07:41:44;;;;;;;4.95;2.20;;;7.20;84.20;;;;;;5000324;28;20368;-46
2022/03/28 07:44:11;;;;;;;4.78;2.60;;;7.20;84.30;;;;;;5005255;28;20033;-45
2022/03/28 07:46:41;;;;;;;4.95;2.17;;;7.20;84.10;;;;;;5006230;28;20060;-45
2022/03/28 07:49:09;;;;;;;3.42;1.85;;;7.20;84.10;;;;;;5005623;28;20417;-43
2022/03/28 07:51:37;;;;;;;9.05;2.53;;;7.30;83.60;;;;;;5006086;28;20117;-46
2022/03/28 07:54:04;;;;;;;8.93;2.42;;;7.20;83.20;;;;;;4988775;28;20418;-43
2022/03/28 07:56:31;;;;;;;5.00;2.22;;;7.40;83.40;;;;;;5004540;28;20042;-46
2022/03/28 07:58:58;;;;;;;5.22;1.63;;;7.40;83.20;;;;;;5005988;28;20434;-46
2022/03/28 08:01:25;;;;;;;3.00;1.77;;;7.40;83.10;;;;;;5002391;28;20043;-46
2022/03/28 08:03:55;;;;;;;5.00;2.30;;;7.40;82.90;;;;;;5005544;28;20431;-43
2022/03/28 08:06:21;;;;;;;6.47;2.42;;;7.50;83.10;;;;;;5004531;28;20038;-45
2022/03/28 08:08:48;;;;;;;5.57;2.08;;;7.50;82.60;;;;;;5004951;28;20084;-44
2022/03/28 08:11:18;;;;;;;6.70;2.25;;;7.40;82.20;;;;;;5003953;28;20213;-44
2022/03/28 08:13:44;;;;;;;5.68;2.08;;;7.50;82.60;;;;;;5006205;28;20340;-44
2022/03/28 08:16:13;;;;;;;3.78;1.95;;;7.70;81.90;;;;;;5007083;28;20112;-44
2022/03/28 08:18:45;;;;;;;6.38;1.98;;;7.60;81.10;;;;;;5008741;28;20088;-45
2022/03/28 08:21:16;;;;;;;6.78;2.05;;;7.70;81.30;;;;;;5007309;28;20568;-47
2022/03/28 08:23:45;;;;;;;5.82;2.20;;;7.70;81.30;;;;;;5008219;28;20033;-43
2022/03/28 08:26:12;;;;;;;5.20;2.53;;;7.80;81.50;;;;;;5009017;28;20041;-43
2022/03/28 08:28:41;;;;;;;6.35;2.75;;;7.80;81.10;;;;;;5009358;28;20044;-43
2022/03/28 08:31:08;;;;;;;5.82;2.75;;;7.80;81.20;;;;;;5007273;28;20034;-47
2022/03/28 08:33:34;;;;;;;7.35;2.90;;;7.90;81.60;;;;;;5008036;28;20041;-46
2022/03/28 08:36:01;;;;;;;7.75;3.75;;;7.90;81.00;;;;;;5008326;28;20464;-46
2022/03/28 08:38:28;;;;;;;9.90;4.28;;;7.90;80.00;;;;;;5007910;28;20141;-46
2022/03/28 08:40:57;;;;;;;9.80;3.83;;;7.90;79.40;;;;;;5008894;28;20088;-45
2022/03/28 08:43:24;;;;;;;7.88;3.67;;;8.20;79.90;;;;;;5007616;28;20034;-45
2022/03/28 08:45:52;;;;;;;9.00;3.55;;;8.40;79.00;;;;;;5008454;28;20058;-45
2022/03/28 08:48:21;;;;;;;8.57;3.80;;;8.40;77.70;;;;;;5008083;28;20474;-44
2022/03/28 08:50:52;;;;;;;5.88;3.45;;;8.50;77.10;;;;;;5009064;28;20088;-45
2022/03/28 08:53:23;;;;;;;8.27;5.03;;;8.60;76.60;;;;;;5006221;28;20118;-48
2022/03/28 08:55:51;;;;;;;6.80;4.60;;;8.80;76.40;;;;;;5007015;28;20068;-45
2022/03/28 08:58:18;;;;;;;8.52;4.47;;;8.90;75.80;;;;;;5008337;28;20044;-48
2022/03/28 09:00:45;;;;;;;9.32;5.72;;;9.00;75.30;;;;;;5008814;28;20117;-47
2022/03/28 09:03:12;;;;;;;16.30;7.88;;;9.00;74.90;;;;;;5007543;28;20037;-45
2022/03/28 09:05:47;;;;;;;7.78;5.05;;;9.10;74.70;;;;;;4998282;28;20034;-43
2022/03/28 09:08:14;;;;;;;11.43;5.72;;;9.00;75.00;;;;;;5008234;28;20079;-47
2022/03/28 09:10:46;;;;;;;7.72;4.15;;;9.20;74.50;;;;;;5008392;28;20510;-45
2022/03/28 09:13:19;;;;;;;10.43;5.13;;;9.10;74.50;;;;;;5007292;28;20546;-45
2022/03/28 09:16:07;;;;;;;8.07;4.28;;;9.20;74.00;;;;;;5004438;28;20037;-50
2022/03/28 09:18:36;;;;;;;11.45;5.20;;;9.10;74.40;;;;;;5008524;28;20064;-46
2022/03/28 09:21:23;;;;;;;6.77;4.80;;;9.00;74.20;;;;;;5006970;28;20208;-45
2022/03/28 09:23:52;;;;;;;12.65;5.97;;;9.20;74.30;;;;;;4988676;28;20288;-43
2022/03/28 09:26:23;;;;;;;7.53;4.97;;;9.30;74.00;;;;;;5006511;28;21346;-45
2022/03/28 09:28:56;;;;;;;7.40;5.20;;;9.20;74.70;;;;;;5021167;28;20413;-44
2022/03/28 09:31:30;;;;;;;8.80;5.25;;;9.20;74.40;;;;;;5008067;28;20038;-48
2022/03/28 09:34:15;;;;;;;8.57;6.22;;;9.20;74.50;;;;;;5006483;28;20061;-46
2022/03/28 09:36:55;;;;;;;19.63;11.00;;;9.30;74.20;;;;;;5006403;28;20057;-47
2022/03/28 09:39:29;;;;;;;27.52;20.48;;;9.30;74.60;;;;;;5005949;28;20184;-44
2022/03/28 09:42:15;;;;;;;13.95;7.65;;;9.60;74.50;;;;;;5007115;28;20029;-44
2022/03/28 09:44:43;;;;;;;8.13;5.85;;;9.80;74.10;;;;;;5007395;28;20100;-46
2022/03/28 09:47:11;;;;;;;8.75;6.05;;;9.70;73.90;;;;;;5007951;28;20026;-44
2022/03/28 09:49:43;;;;;;;12.02;8.85;;;9.70;73.30;;;;;;5006666;28;20458;-47
2022/03/28 09:52:21;;;;;;;11.60;10.13;;;9.80;73.40;;;;;;5004973;28;20088;-48
2022/03/28 09:54:57;;;;;;;7.28;5.57;;;9.90;73.30;;;;;;5006259;28;20030;-44
2022/03/28 09:57:32;;;;;;;11.02;6.25;;;9.90;73.30;;;;;;5007469;28;20069;-45
2022/03/28 10:00:20;;;;;;;8.65;5.40;;;9.70;73.40;;;;;;4990483;28;20447;-43
2022/03/28 10:02:49;;;;;;;8.98;5.13;;;9.80;74.30;;;;;;5005828;28;20030;-44
2022/03/28 10:05:17;;;;;;;8.13;5.55;;;9.80;74.10;;;;;;5006260;28;20084;-44
2022/03/28 10:07:45;;;;;;;8.88;6.10;;;9.90;73.30;;;;;;5006339;28;20117;-44
2022/03/28 10:10:12;;;;;;;8.27;5.47;;;9.90;72.60;;;;;;5005033;28;20332;-46
2022/03/28 10:12:43;;;;;;;7.05;4.90;;;9.80;73.10;;;;;;5006514;28;20026;-44
2022/03/28 10:15:15;;;;;;;10.23;5.32;;;9.90;73.70;;;;;;5005794;28;20029;-45
2022/03/28 10:17:44;;;;;;;7.07;5.43;;;9.90;73.60;;;;;;5006592;28;20045;-44
2022/03/28 10:20:14;;;;;;;9.27;5.80;;;9.90;74.50;;;;;;5006950;28;20163;-45
2022/03/28 10:22:45;;;;;;;8.77;5.70;;;10.10;73.60;;;;;;5005638;28;20753;-44
2022/03/28 10:25:21;;;;;;;8.82;5.38;;;10.10;73.90;;;;;;5005292;28;20308;-44
2022/03/28 10:27:51;;;;;;;5.72;4.10;;;10.20;73.60;;;;;;5004059;28;20049;-45
2022/03/28 10:30:36;;;;;;;6.63;4.80;;;10.30;74.10;;;;;;5005623;28;20048;-46
2022/03/28 10:33:34;;;;;;;7.88;5.00;;;10.40;73.00;;;;;;5005684;28;20341;-46
2022/03/28 10:36:44;;;;;;;6.50;4.57;;;10.30;72.30;;;;;;5005045;28;20450;-47
2022/03/28 10:39:32;;;;;;;11.18;5.60;;;10.50;73.00;;;;;;4998401;28;20042;-46
2022/03/28 10:42:08;;;;;;;6.65;4.65;;;10.50;71.90;;;;;;5003618;28;20042;-47
2022/03/28 10:45:04;;;;;;;8.93;5.07;;;10.40;73.00;;;;;;5007058;28;20032;-46
2022/03/28 10:47:43;;;;;;;7.03;4.80;;;10.50;73.10;;;;;;4989145;28;20046;-45
2022/03/28 10:50:12;;;;;;;10.63;5.70;;;10.40;72.90;;;;;;5005813;28;20045;-47
2022/03/28 10:52:38;;;;;;;8.67;4.53;;;10.40;73.40;;;;;;5005411;28;20034;-45
2022/03/28 10:55:11;;;;;;;8.43;5.15;;;10.40;75.50;;;;;;4995302;28;20038;-51
2022/03/28 10:57:40;;;;;;;7.38;5.30;;;10.50;73.30;;;;;;5005027;28;20029;-45
2022/03/28 11:00:12;;;;;;;8.35;4.53;;;10.60;72.70;;;;;;5005298;28;20030;-48
2022/03/28 11:02:39;;;;;;;8.27;5.35;;;10.60;72.90;;;;;;5006530;28;20034;-45
2022/03/28 11:05:07;;;;;;;8.02;6.57;;;10.60;72.70;;;;;;5006387;28;20018;-48
2022/03/28 11:07:36;;;;;;;11.33;5.97;;;10.50;72.40;;;;;;5006675;28;20053;-44
2022/03/28 11:10:13;;;;;;;9.55;6.93;;;10.40;74.20;;;;;;5005162;28;20051;-49
2022/03/28 11:12:44;;;;;;;10.43;6.38;;;10.40;73.10;;;;;;5005995;28;20035;-47
2022/03/28 11:15:21;;;;;;;10.50;8.07;;;10.40;73.40;;;;;;4989224;28;20038;-45
2022/03/28 11:18:24;;;;;;;8.82;5.95;;;10.50;73.50;;;;;;5005666;28;20499;-50
2022/03/28 11:20:52;;;;;;;10.00;7.10;;;10.60;72.90;;;;;;5002891;28;20058;-44
2022/03/28 11:23:29;;;;;;;7.90;6.30;;;10.50;73.60;;;;;;5005168;28;20355;-47
2022/03/28 11:25:56;;;;;;;8.35;6.15;;;10.40;73.60;;;;;;5006173;28;20045;-44
2022/03/28 11:28:41;;;;;;;9.60;5.82;;;10.40;73.80;;;;;;4987431;28;20355;-46
2022/03/28 11:31:15;;;;;;;9.40;6.95;;;10.40;72.90;;;;;;5002210;28;20103;-45
2022/03/28 11:34:07;;;;;;;11.00;7.40;;;10.30;73.60;;;;;;5004422;28;20105;-47
2022/03/28 11:36:39;;;;;;;7.43;6.15;;;10.20;74.20;;;;;;5005855;28;20026;-48
2022/03/28 11:39:13;;;;;;;10.75;6.75;;;10.30;74.20;;;;;;5000320;28;20100;-44
2022/03/28 11:41:41;;;;;;;8.13;6.13;;;10.40;74.00;;;;;;5003307;28;20022;-44
2022/03/28 11:44:11;;;;;;;8.30;6.80;;;10.40;73.50;;;;;;5004626;28;20030;-44
2022/03/28 11:46:39;;;;;;;11.05;7.43;;;10.30;73.70;;;;;;4988381;28;20049;-47
2022/03/28 11:49:24;;;;;;;8.48;6.63;;;10.40;74.00;;;;;;5005185;28;20042;-47
2022/03/28 11:51:52;;;;;;;12.13;6.97;;;10.30;73.80;;;;;;5006007;28;20402;-45
2022/03/28 11:54:21;;;;;;;9.50;7.35;;;10.30;74.50;;;;;;5006900;28;20038;-44
2022/03/28 11:59:41;;;;;;;10.25;7.05;;;10.30;74.20;;;;;;5008724;28;20092;-44
2022/03/28 12:02:09;;;;;;;8.55;6.63;;;10.40;73.40;;;;;;5007189;28;20109;-47
2022/03/28 12:04:46;;;;;;;8.88;7.00;;;10.40;73.80;;;;;;4990665;28;20033;-44
2022/03/28 12:07:14;;;;;;;9.38;7.90;;;10.40;73.70;;;;;;5005154;28;20126;-44
2022/03/28 12:09:47;;;;;;;12.70;7.00;;;10.40;73.70;;;;;;4991565;28;20582;-46
2022/03/28 12:12:15;;;;;;;8.40;6.50;;;10.40;73.60;;;;;;5007917;28;20041;-44
2022/03/28 12:14:42;;;;;;;10.07;7.72;;;10.30;73.90;;;;;;5008498;28;20502;-44
2022/03/28 12:17:08;;;;;;;9.27;7.35;;;10.20;74.10;;;;;;5003422;28;20041;-45
2022/03/28 12:19:35;;;;;;;13.10;7.90;;;10.00;74.30;;;;;;5008543;28;20079;-43
2022/03/28 12:22:13;;;;;;;10.27;6.47;;;9.90;75.00;;;;;;5009051;28;20036;-44
2022/03/28 12:24:52;;;;;;;10.77;7.03;;;10.00;75.80;;;;;;5008208;28;20033;-45
2022/03/28 12:27:25;;;;;;;12.15;7.47;;;9.90;74.90;;;;;;5007424;28;20030;-44
2022/03/28 12:29:53;;;;;;;10.77;7.00;;;9.90;75.30;;;;;;5006941;28;20057;-44
2022/03/28 12:32:20;;;;;;;11.10;7.63;;;9.80;75.50;;;;;;5006738;28;20034;-44
2022/03/28 12:34:47;;;;;;;11.13;8.07;;;9.80;75.20;;;;;;5005146;28;20047;-44
2022/03/28 12:37:18;;;;;;;10.98;8.40;;;9.70;75.40;;;;;;5008423;28;20061;-44
2022/03/28 12:39:45;;;;;;;12.15;7.15;;;9.60;75.50;;;;;;5008962;28;20033;-43
2022/03/28 12:42:27;;;;;;;13.35;8.35;;;9.60;76.00;;;;;;4992012;28;20108;-44
2022/03/28 12:44:54;;;;;;;13.05;8.65;;;9.60;76.30;;;;;;4992086;28;20711;-45
2022/03/28 12:47:27;;;;;;;12.05;7.57;;;9.70;76.30;;;;;;5007399;28;20045;-44
2022/03/28 12:49:57;;;;;;;13.30;8.30;;;9.80;76.60;;;;;;4990510;28;20042;-43
2022/03/28 12:52:31;;;;;;;11.10;7.18;;;9.90;76.40;;;;;;5007836;28;20057;-43
2022/03/28 12:54:58;;;;;;;11.52;8.48;;;9.90;75.90;;;;;;5008727;28;20123;-43
2022/03/28 12:57:28;;;;;;;15.25;10.40;;;9.70;75.80;;;;;;5006782;28;20043;-47
2022/03/28 12:59:56;;;;;;;;;;;9.50;76.40;;;;;;5007879;28;20102;-45
2022/03/28 13:02:22;;;;;;;12.48;8.55;;;9.50;77.10;;;;;;5004713;28;19917;-49
2022/03/28 13:04:50;;;;;;;12.93;9.93;;;9.40;77.30;;;;;;5007981;28;20109;-47
2022/03/28 13:07:18;;;;;;;11.70;8.90;;;9.30;77.50;;;;;;5007007;28;20032;-44
2022/03/28 13:10:01;;;;;;;13.65;9.65;;;9.40;77.70;;;;;;5007751;28;20046;-45